Sumner, IL (62466)

9:59 PM CST on November 23, 2014 (GMT -0600)
Mount Carmel Municipal | Change Station
CLOSE
Current Station
Airport
Location: Mount Carmel,
Elevation: 430 ft
Nearby Weather Stations

Elev 430 ft 38.61 °N, 87.73 °W | Updated 24 minutes ago

Overcast
Overcast
57 °F
Feels Like 57 °F
N
21
Wind Variable Wind from SW
Gusts 24 mph

Today
High -- | Low -- °F
--% Chance of Precip.
Yesterday
High -- | Low -- °F
Precip. -- in
6:42 AM 4:32 PM
Waxing Crescent, 3% visible
Pressure 29.25 in
Visibility 10.0 miles
Clouds Overcast 1100 ft
Dew Point 54 °F
Humidity 88%
Rainfall 2.47 in
Snow Depth Not available.
UV 0 out of 12
Pollen .30 out of 12
Air Quality Not available.
Flu Activity Not available.
METAR KAJG 240335Z AUTO 22018G21KT 10SM -RA OVC011 14/12 A2925 RMK AO2 P0002

More Conditions Fewer Conditions

Pressure 29.25 in
Visibility 10.0 miles
Clouds Overcast 1100 ft
Dew Point 54 °F
Humidity 88%
Rainfall 2.47 in
Snow Depth Not available.
UV 0 out of 12
Pollen .30 out of 12
Air Quality Not available.
Flu Activity Not available.
METAR KAJG 240335Z AUTO 22018G21KT 10SM -RA OVC011 14/12 A2925 RMK AO2 P0002

More Conditions Fewer Conditions

10-Day Weather Forecast

Almanac

Astronomy

Nov. 23, 2014 Rise Set
Actual Time
Civil Twilight
Nautical Twilight
Astronomical Twilight
Moon
Length of Visible Light
Length of Day
Tomorrow will be .
, % of the Moon is Illuminated

Today's Extremes

State Highs State Lows

Community

WunderPhotos

Upload Photos

1,773,262 photos uploaded!

WunderBlogs® & News

Nearby

Air Quality

  Air Quality AQ Index Pollutant
Not available.

Snow Depth

Station Depth Elevation

Earthquake Activity

City Distance Mag. Time & Date
Minimum magnitude displayed is 2.5.

Coastal Water Temperatures

Place Temperature

Nearby Weather Stations